createdAt,value
2022-12-14T00:01:34.210Z,99784.63
2022-12-14T00:04:00.601Z,99778.72
2022-12-14T00:06:28.565Z,99779.53
2022-12-14T00:08:56.537Z,99776.09
2022-12-14T00:11:23.316Z,99777.72
2022-12-14T00:14:00.846Z,99771.63
2022-12-14T00:16:29.173Z,99773.59
2022-12-14T00:18:56.428Z,99769.16
2022-12-14T00:21:23.340Z,99762.25
2022-12-14T00:23:51.037Z,99766.69
2022-12-14T00:26:19.342Z,99762.25
2022-12-14T00:28:46.394Z,99757.97
2022-12-14T00:31:13.045Z,99760.59
2022-12-14T00:33:39.931Z,99754.69
2022-12-14T00:36:07.513Z,99752.06
2022-12-14T00:38:33.935Z,99748.44
2022-12-14T00:41:00.423Z,99749.41
2022-12-14T00:43:26.990Z,99736.28
2022-12-14T00:45:53.751Z,99738.06
2022-12-14T00:48:20.992Z,99739.88
2022-12-14T00:50:48.818Z,99736.28
2022-12-14T00:53:15.399Z,99741.53
2022-12-14T00:55:42.438Z,99731.16
2022-12-14T00:58:10.235Z,99737.25
2022-12-14T01:00:36.766Z,99729.34
2022-12-14T01:03:03.175Z,99741.69
2022-12-14T01:05:29.589Z,99741.81
2022-12-14T01:07:55.975Z,99739.19
2022-12-14T01:10:22.622Z,99738.22
2022-12-14T01:12:48.991Z,99733.81
2022-12-14T01:15:15.411Z,99732.97
2022-12-14T01:17:41.845Z,99741.53
2022-12-14T01:20:08.499Z,99736.28
2022-12-14T01:22:34.855Z,99739.88
2022-12-14T01:25:01.271Z,99728.38
2022-12-14T01:27:28.046Z,99722.28
2022-12-14T01:29:54.466Z,99718.84
2022-12-14T01:32:20.870Z,99721.47
2022-12-14T01:34:48.291Z,99718.84
2022-12-14T01:37:14.957Z,99716.22
2022-12-14T01:39:41.316Z,99716.22
2022-12-14T01:42:15.083Z,99715.22
2022-12-14T01:44:44.564Z,99708.31
2022-12-14T01:47:23.823Z,99701.41
2022-12-14T01:49:50.151Z,99698.94
2022-12-14T01:52:16.676Z,99709.44
2022-12-14T01:54:48.887Z,99700.91
2022-12-14T01:57:17.603Z,99704.34
2022-12-14T01:59:45.467Z,99706.28
2022-12-14T02:02:12.322Z,99705.66
2022-12-14T02:04:42.732Z,99704.00
2022-12-14T02:07:09.932Z,99695.41
2022-12-14T02:09:39.487Z,99700.03
2022-12-14T02:12:11.221Z,99692.47
2022-12-14T02:14:38.687Z,99690.81
2022-12-14T02:17:07.272Z,99699.81
2022-12-14T02:19:34.623Z,99693.75
2022-12-14T02:22:19.987Z,99695.69
2022-12-14T02:25:04.840Z,99694.19
2022-12-14T02:27:40.300Z,99688.41
2022-12-14T02:30:12.922Z,99689.44
2022-12-14T02:32:57.407Z,99680.03
2022-12-14T02:35:33.394Z,99673.28
2022-12-14T02:38:18.313Z,99671.63
2022-12-14T02:41:03.652Z,99668.31
2022-12-14T02:43:33.532Z,99667.00
2022-12-14T02:46:06.034Z,99665.38
2022-12-14T02:48:46.164Z,99656.78
2022-12-14T02:51:24.145Z,99658.75
2022-12-14T02:53:56.757Z,99652.16
2022-12-14T02:56:26.593Z,99654.94
2022-12-14T02:58:53.745Z,99654.28
2022-12-14T03:01:22.538Z,99643.09
2022-12-14T03:03:49.104Z,99645.88
2022-12-14T03:06:26.272Z,99647.00
2022-12-14T03:09:07.917Z,99636.81
2022-12-14T03:11:36.949Z,99635.31
2022-12-14T03:14:07.337Z,99625.94
2022-12-14T03:16:40.048Z,99628.84
2022-12-14T03:19:11.754Z,99625.41
2022-12-14T03:21:42.163Z,99617.84
2022-12-14T03:24:11.970Z,99625.75
2022-12-14T03:26:50.155Z,99616.19
2022-12-14T03:29:20.590Z,99613.72
2022-12-14T03:31:49.319Z,99596.16
2022-12-14T03:34:17.527Z,99598.94
2022-12-14T03:36:50.166Z,99600.75
2022-12-14T03:39:21.450Z,99595.50
2022-12-14T03:41:49.060Z,99588.59
2022-12-14T03:44:22.568Z,99590.53
2022-12-14T03:46:58.338Z,99581.03
2022-12-14T03:49:30.889Z,99582.00
2022-12-14T03:51:57.283Z,99575.09
2022-12-14T03:54:29.586Z,99566.53
2022-12-14T03:57:06.259Z,99575.44
2022-12-14T03:59:58.728Z,99565.19
2022-12-14T04:02:42.793Z,99570.47
2022-12-14T04:05:12.343Z,99565.38
2022-12-14T04:07:42.863Z,99555.03
2022-12-14T04:10:33.698Z,99557.66
2022-12-14T04:13:24.288Z,99553.38
2022-12-14T04:16:20.067Z,99555.34
2022-12-14T04:19:00.545Z,99549.25
2022-12-14T04:21:36.484Z,99546.78
2022-12-14T04:24:25.819Z,99534.63
2022-12-14T04:27:00.830Z,99540.19
2022-12-14T04:29:47.551Z,99543.78
2022-12-14T04:32:18.172Z,99538.84
2022-12-14T04:34:46.355Z,99537.19
2022-12-14T04:37:15.544Z,99541.78
2022-12-14T04:39:49.110Z,99553.25
2022-12-14T04:42:16.530Z,99549.97
2022-12-14T04:44:46.273Z,99549.16
2022-12-14T04:47:14.887Z,99533.72
2022-12-14T04:49:44.783Z,99540.75
2022-12-14T04:52:21.849Z,99536.63
2022-12-14T04:54:59.574Z,99533.50
2022-12-14T04:57:31.301Z,99537.09
2022-12-14T04:59:58.781Z,99531.16
2022-12-14T05:02:43.739Z,99526.75
2022-12-14T05:05:16.503Z,99515.91
2022-12-14T05:07:49.937Z,99511.00
2022-12-14T05:10:18.764Z,99511.53
2022-12-14T05:13:02.203Z,99506.41
2022-12-14T05:15:39.281Z,99508.47
2022-12-14T05:18:06.725Z,99507.03
2022-12-14T05:20:33.444Z,99498.94
2022-12-14T05:22:59.899Z,99497.78
2022-12-14T05:25:26.401Z,99499.66
2022-12-14T05:27:52.842Z,99498.94
2022-12-14T05:30:19.328Z,99494.03
2022-12-14T05:32:45.712Z,99482.53
2022-12-14T05:35:13.887Z,99480.94
2022-12-14T05:37:40.897Z,99480.72
2022-12-14T05:40:07.526Z,99479.63
2022-12-14T05:42:38.254Z,99472.63
2022-12-14T05:45:10.544Z,99471.72
2022-12-14T05:47:37.010Z,99463.88
2022-12-14T05:50:03.861Z,99461.94
2022-12-14T05:52:30.315Z,99458.41
2022-12-14T05:55:00.910Z,99452.34
2022-12-14T05:57:31.396Z,99459.28
2022-12-14T05:59:57.765Z,99461.78
2022-12-14T06:02:24.221Z,99453.56
2022-12-14T06:04:50.699Z,99448.97
2022-12-14T06:07:17.140Z,99446.84
2022-12-14T06:09:43.600Z,99441.75
2022-12-14T06:12:10.003Z,99435.16
2022-12-14T06:14:36.381Z,99433.53
2022-12-14T06:17:02.830Z,99428.25
2022-12-14T06:19:29.243Z,99431.88
2022-12-14T06:21:55.658Z,99423.00
2022-12-14T06:24:22.130Z,99423.63
2022-12-14T06:26:48.537Z,99427.88
2022-12-14T06:29:16.689Z,99424.25
2022-12-14T06:31:43.100Z,99418.66
2022-12-14T06:34:10.061Z,99421.94
2022-12-14T06:36:37.570Z,99406.97
2022-12-14T06:39:08.989Z,99408.41
2022-12-14T06:41:35.411Z,99410.72
2022-12-14T06:44:05.486Z,99407.75
2022-12-14T06:46:31.919Z,99399.69
2022-12-14T06:48:58.350Z,99398.50
2022-12-14T06:51:24.867Z,99394.53
2022-12-14T06:53:54.554Z,99390.59
2022-12-14T06:56:21.829Z,99381.53
2022-12-14T06:58:48.383Z,99383.00
2022-12-14T07:01:16.519Z,99380.03
2022-12-14T07:03:43.605Z,99382.31
2022-12-14T07:06:10.449Z,99379.31
2022-12-14T07:08:38.201Z,99377.19
2022-12-14T07:11:05.900Z,99373.88
2022-12-14T07:13:32.327Z,99380.41
2022-12-14T07:15:59.397Z,99375.34
2022-12-14T07:18:27.052Z,99372.19
2022-12-14T07:20:56.361Z,99370.69
2022-12-14T07:23:27.693Z,99374.28
2022-12-14T07:26:00.223Z,99367.72
2022-12-14T07:28:27.928Z,99364.44
2022-12-14T07:31:00.723Z,99365.56
2022-12-14T07:33:28.147Z,99363.94
2022-12-14T07:36:05.404Z,99360.66
2022-12-14T07:38:32.176Z,99366.03
2022-12-14T07:41:02.603Z,99367.03
2022-12-14T07:43:29.489Z,99363.41
2022-12-14T07:45:59.131Z,99368.66
2022-12-14T07:48:25.564Z,99364.09
2022-12-14T07:50:53.126Z,99354.56
2022-12-14T07:53:19.530Z,99357.88
2022-12-14T07:55:45.985Z,99345.41
2022-12-14T07:58:12.387Z,99357.38
2022-12-14T08:00:38.763Z,99350.03
2022-12-14T08:03:05.325Z,99349.72
2022-12-14T08:05:31.751Z,99352.03
2022-12-14T08:07:58.144Z,99347.44
2022-12-14T08:10:24.517Z,99355.66
2022-12-14T08:12:50.943Z,99344.38
2022-12-14T08:15:17.299Z,99352.72
2022-12-14T08:17:43.708Z,99352.56
2022-12-14T08:20:11.070Z,99356.66
2022-12-14T08:22:37.536Z,99360.94
2022-12-14T08:25:03.991Z,99344.06
2022-12-14T08:27:30.795Z,99342.94
2022-12-14T08:29:57.487Z,99341.13
2022-12-14T08:32:23.912Z,99345.22
2022-12-14T08:34:50.335Z,99340.50
2022-12-14T08:37:16.716Z,99342.16
2022-12-14T08:39:43.127Z,99347.06
2022-12-14T08:42:14.132Z,99358.09
2022-12-14T08:44:40.578Z,99345.59
2022-12-14T08:47:07.003Z,99346.13
2022-12-14T08:49:33.444Z,99344.16
2022-12-14T08:51:59.950Z,99346.63
2022-12-14T08:54:26.367Z,99343.69
2022-12-14T08:56:52.777Z,99340.72
2022-12-14T08:59:37.063Z,99333.50
2022-12-14T09:02:05.719Z,99333.19
2022-12-14T09:04:32.145Z,99332.88
2022-12-14T09:06:58.545Z,99334.22
2022-12-14T09:09:24.980Z,99331.25
2022-12-14T09:11:51.347Z,99333.53
2022-12-14T09:14:17.743Z,99333.06
2022-12-14T09:16:44.228Z,99336.34
2022-12-14T09:19:10.667Z,99332.56
2022-12-14T09:21:37.122Z,99333.88
2022-12-14T09:24:03.697Z,99330.63
2022-12-14T09:26:30.608Z,99341.47
2022-12-14T09:28:58.122Z,99338.34
2022-12-14T09:31:26.117Z,99331.94
2022-12-14T09:33:53.137Z,99323.75
2022-12-14T09:36:20.665Z,99328.50
2022-12-14T09:38:51.601Z,99320.16
2022-12-14T09:41:34.100Z,99322.44
2022-12-14T09:44:04.169Z,99328.03
2022-12-14T09:46:45.997Z,99329.34
2022-12-14T09:49:31.353Z,99329.66
2022-12-14T09:52:01.358Z,99330.00
2022-12-14T09:54:29.652Z,99323.25
2022-12-14T09:56:58.432Z,99326.38
2022-12-14T09:59:27.533Z,99313.56
2022-12-14T10:04:51.214Z,99312.53
2022-12-14T10:07:43.857Z,99312.84
2022-12-14T10:10:24.091Z,99312.19
2022-12-14T10:13:01.821Z,99309.88
2022-12-14T10:15:32.457Z,99310.19
2022-12-14T10:18:34.046Z,99313.97
2022-12-14T10:20:58.778Z,99317.53
2022-12-14T10:23:25.989Z,99306.34
2022-12-14T10:25:54.504Z,99311.75
2022-12-14T10:28:33.426Z,99306.63
2022-12-14T10:31:01.285Z,99307.56
2022-12-14T10:33:31.631Z,99311.34
2022-12-14T10:36:16.767Z,99310.66
2022-12-14T10:38:49.187Z,99303.91
2022-12-14T10:41:21.574Z,99309.31
2022-12-14T10:43:54.562Z,99300.06
2022-12-14T10:46:20.960Z,99303.00
2022-12-14T10:49:04.250Z,99312.03
2022-12-14T10:51:34.195Z,99303.75
2022-12-14T10:54:00.587Z,99303.25
2022-12-14T10:56:34.606Z,99297.81
2022-12-14T10:59:36.946Z,99297.28
2022-12-14T11:02:07.326Z,99295.13
2022-12-14T11:04:36.207Z,99292.13
2022-12-14T11:07:04.441Z,99286.34
2022-12-14T11:09:31.826Z,99284.00
2022-12-14T11:12:03.399Z,99281.47
2022-12-14T11:14:29.978Z,99275.97
2022-12-14T11:16:56.668Z,99280.66
2022-12-14T11:19:24.435Z,99270.75
2022-12-14T11:21:52.200Z,99270.06
2022-12-14T11:24:23.347Z,99273.66
2022-12-14T11:26:52.324Z,99264.44
2022-12-14T11:29:39.415Z,99254.88
2022-12-14T11:32:06.290Z,99257.88
2022-12-14T11:34:39.082Z,99250.69
2022-12-14T11:37:12.940Z,99255.47
2022-12-14T11:39:40.745Z,99248.97
2022-12-14T11:42:14.555Z,99247.53
2022-12-14T11:44:41.076Z,99258.31
2022-12-14T11:47:18.110Z,99248.25
2022-12-14T11:49:46.506Z,99236.94
2022-12-14T11:52:26.656Z,99240.06
2022-12-14T11:54:54.307Z,99241.09
2022-12-14T11:57:23.544Z,99230.44
2022-12-14T11:59:57.769Z,99227.97
2022-12-14T12:02:33.377Z,99221.34
2022-12-14T12:05:07.783Z,99223.75
2022-12-14T12:07:39.277Z,99223.72
2022-12-14T12:10:25.960Z,99204.81
2022-12-14T12:12:54.839Z,99213.91
2022-12-14T12:15:23.206Z,99207.47
2022-12-14T12:17:52.856Z,99204.50
2022-12-14T12:20:33.637Z,99199.69
2022-12-14T12:23:05.749Z,99199.53
2022-12-14T12:25:37.364Z,99189.09
2022-12-14T12:28:19.610Z,99194.03
2022-12-14T12:30:49.578Z,99192.75
2022-12-14T12:33:32.292Z,99192.75
2022-12-14T12:36:02.929Z,99188.03
2022-12-14T12:38:49.875Z,99188.00
2022-12-14T12:41:30.598Z,99185.53
2022-12-14T12:44:18.868Z,99189.28
2022-12-14T12:49:52.109Z,99194.31
2022-12-14T12:52:26.880Z,99192.19
2022-12-14T12:54:58.630Z,99195.00
2022-12-14T12:57:28.341Z,99201.88
2022-12-14T12:59:55.825Z,99190.28
2022-12-14T13:02:22.499Z,99186.13
2022-12-14T13:04:52.803Z,99189.16
2022-12-14T13:07:29.714Z,99187.66
2022-12-14T13:10:05.613Z,99185.31
2022-12-14T13:12:37.676Z,99178.69
2022-12-14T13:15:06.161Z,99179.28
2022-12-14T13:17:32.538Z,99174.50
2022-12-14T13:20:01.000Z,99182.53
2022-12-14T13:22:30.389Z,99180.94
2022-12-14T13:25:00.006Z,99181.38
2022-12-14T13:27:40.750Z,99178.38
2022-12-14T13:30:13.459Z,99176.50
2022-12-14T13:32:49.220Z,99170.13
2022-12-14T13:35:18.614Z,99168.59
2022-12-14T13:38:12.785Z,99169.16
2022-12-14T13:40:39.143Z,99167.66
2022-12-14T13:43:08.591Z,99167.47
2022-12-14T13:45:46.399Z,99172.81
2022-12-14T13:48:34.162Z,99171.41
2022-12-14T13:51:03.216Z,99159.06
2022-12-14T13:53:50.465Z,99167.09
2022-12-14T13:56:31.009Z,99166.28
2022-12-14T13:59:01.027Z,99166.50
2022-12-14T14:01:46.078Z,99160.59
2022-12-14T14:04:15.448Z,99171.50
2022-12-14T14:06:42.113Z,99158.34
2022-12-14T14:09:24.642Z,99165.00
2022-12-14T14:11:58.665Z,99169.16
2022-12-14T14:14:48.438Z,99166.59
2022-12-14T14:17:18.567Z,99165.28
2022-12-14T14:19:49.351Z,99164.00
2022-12-14T14:22:23.864Z,99169.22
2022-12-14T14:24:55.908Z,99172.81
2022-12-14T14:27:24.112Z,99166.53
2022-12-14T14:29:51.368Z,99169.88
2022-12-14T14:32:32.425Z,99174.03
2022-12-14T14:35:00.031Z,99165.09
2022-12-14T14:37:34.081Z,99175.63
2022-12-14T14:40:20.886Z,99170.94
2022-12-14T14:43:01.184Z,99173.69
2022-12-14T14:45:30.905Z,99168.44
2022-12-14T14:47:59.275Z,99183.13
2022-12-14T14:50:35.266Z,99179.56
2022-12-14T14:53:15.304Z,99188.34
2022-12-14T14:56:07.751Z,99190.56
2022-12-14T14:58:38.848Z,99189.50
2022-12-14T15:01:22.470Z,99186.16
2022-12-14T15:03:54.435Z,99189.59
2022-12-14T15:06:26.468Z,99194.88
2022-12-14T15:08:57.432Z,99191.75
2022-12-14T15:11:25.033Z,99200.47
2022-12-14T15:13:53.355Z,99194.84
2022-12-14T15:16:30.980Z,99197.00
2022-12-14T15:19:36.145Z,99194.22
2022-12-14T15:22:04.437Z,99201.25
2022-12-14T15:24:32.932Z,99195.16
2022-12-14T15:26:59.517Z,99202.16
2022-12-14T15:29:28.047Z,99207.13
2022-12-14T15:31:59.597Z,99210.81
2022-12-14T15:34:27.038Z,99202.47
2022-12-14T15:36:54.124Z,99209.84
2022-12-14T15:39:28.096Z,99201.91
2022-12-14T15:42:24.036Z,99203.50
2022-12-14T15:44:52.052Z,99196.19
2022-12-14T15:47:29.404Z,99190.44
2022-12-14T15:50:13.824Z,99197.97
2022-12-14T15:52:41.303Z,99205.53
2022-12-14T15:55:20.685Z,99203.06
2022-12-14T15:57:47.101Z,99197.34
2022-12-14T16:00:14.061Z,99204.44
2022-12-14T16:02:44.191Z,99199.34
2022-12-14T16:05:16.437Z,99216.03
2022-12-14T16:07:44.694Z,99206.63
2022-12-14T16:10:17.127Z,99212.72
2022-12-14T16:12:45.827Z,99212.28
2022-12-14T16:15:18.575Z,99220.38
2022-12-14T16:17:45.301Z,99216.06
2022-12-14T16:20:16.179Z,99225.00
2022-12-14T16:22:56.193Z,99228.44
2022-12-14T16:25:22.677Z,99224.72
2022-12-14T16:27:50.941Z,99223.88
2022-12-14T16:30:17.709Z,99231.56
2022-12-14T16:32:45.175Z,99233.19
2022-12-14T16:35:24.858Z,99232.50
2022-12-14T16:37:52.644Z,99230.19
2022-12-14T16:40:24.994Z,99233.19
2022-12-14T16:42:51.402Z,99230.88
2022-12-14T16:45:38.046Z,99230.41
2022-12-14T16:48:13.431Z,99230.69
2022-12-14T16:50:56.725Z,99232.69
2022-12-14T16:53:27.770Z,99242.75
2022-12-14T16:56:03.883Z,99234.94
2022-12-14T16:58:30.510Z,99230.78
2022-12-14T17:01:02.073Z,99236.19
2022-12-14T17:03:32.736Z,99241.56
2022-12-14T17:06:01.229Z,99244.34
2022-12-14T17:08:28.154Z,99243.47
2022-12-14T17:10:55.041Z,99243.38
2022-12-14T17:13:21.421Z,99245.94
2022-12-14T17:15:57.041Z,99247.88
2022-12-14T17:18:25.850Z,99248.63
2022-12-14T17:20:52.319Z,99245.91
2022-12-14T17:23:19.035Z,99256.19
2022-12-14T17:25:47.927Z,99255.25
2022-12-14T17:28:20.867Z,99254.38
2022-12-14T17:30:48.699Z,99249.81
2022-12-14T17:33:15.387Z,99256.81
2022-12-14T17:35:41.803Z,99257.53
2022-12-14T17:38:14.531Z,99255.00
2022-12-14T17:40:41.108Z,99257.53
2022-12-14T17:43:11.078Z,99267.00
2022-12-14T17:45:37.499Z,99268.69
2022-12-14T17:48:04.123Z,99268.59
2022-12-14T17:50:32.188Z,99261.41
2022-12-14T17:52:58.876Z,99267.56
2022-12-14T17:55:27.050Z,99264.00
2022-12-14T17:57:53.571Z,99270.97
2022-12-14T18:00:40.132Z,99271.06
2022-12-14T18:03:06.781Z,99270.47
2022-12-14T18:05:33.477Z,99269.53
